sensor_id;sensor_type;location;lat;lon;timestamp;temperature;humidity
12408;DHT22;6268;48.188;17.134;2024-03-02T00:01:54;10.80;99.90
12408;DHT22;6268;48.188;17.134;2024-03-02T00:04:22;10.70;99.90
12408;DHT22;6268;48.188;17.134;2024-03-02T00:06:51;10.80;99.90
12408;DHT22;6268;48.188;17.134;2024-03-02T00:09:22;10.70;99.90
12408;DHT22;6268;48.188;17.134;2024-03-02T00:11:51;10.70;99.90
12408;DHT22;6268;48.188;17.134;2024-03-02T00:14:19;10.70;99.90
12408;DHT22;6268;48.188;17.134;2024-03-02T00:16:47;10.70;99.90
12408;DHT22;6268;48.188;17.134;2024-03-02T00:19:17;10.80;99.90
12408;DHT22;6268;48.188;17.134;2024-03-02T00:21:46;10.80;99.90
12408;DHT22;6268;48.188;17.134;2024-03-02T00:24:20;10.70;99.90
12408;DHT22;6268;48.188;17.134;2024-03-02T00:26:49;10.60;99.90
12408;DHT22;6268;48.188;17.134;2024-03-02T00:29:18;10.60;99.90
12408;DHT22;6268;48.188;17.134;2024-03-02T00:31:48;10.60;99.90
12408;DHT22;6268;48.188;17.134;2024-03-02T00:34:18;10.60;99.90
12408;DHT22;6268;48.188;17.134;2024-03-02T00:36:46;10.60;99.90
12408;DHT22;6268;48.188;17.134;2024-03-02T00:39:16;10.60;99.90
12408;DHT22;6268;48.188;17.134;2024-03-02T00:41:45;10.60;99.90
12408;DHT22;6268;48.188;17.134;2024-03-02T00:44:15;10.70;99.90
12408;DHT22;6268;48.188;17.134;2024-03-02T00:46:44;10.70;99.90
12408;DHT22;6268;48.188;17.134;2024-03-02T00:49:18;10.70;99.90
12408;DHT22;6268;48.188;17.134;2024-03-02T00:51:50;10.70;99.90
12408;DHT22;6268;48.188;17.134;2024-03-02T00:54:20;10.70;99.90
12408;DHT22;6268;48.188;17.134;2024-03-02T00:56:50;10.70;99.90
12408;DHT22;6268;48.188;17.134;2024-03-02T00:59:19;10.70;99.90
12408;DHT22;6268;48.188;17.134;2024-03-02T01:01:48;10.70;99.90
12408;DHT22;6268;48.188;17.134;2024-03-02T01:04:16;10.70;99.90
12408;DHT22;6268;48.188;17.134;2024-03-02T01:06:46;10.70;99.90
12408;DHT22;6268;48.188;17.134;2024-03-02T01:09:15;10.80;99.90
12408;DHT22;6268;48.188;17.134;2024-03-02T01:11:45;10.80;99.90
12408;DHT22;6268;48.188;17.134;2024-03-02T01:14:13;10.70;99.90
12408;DHT22;6268;48.188;17.134;2024-03-02T01:16:42;10.70;99.90
12408;DHT22;6268;48.188;17.134;2024-03-02T01:19:10;10.60;99.90
12408;DHT22;6268;48.188;17.134;2024-03-02T01:21:39;10.60;99.90
12408;DHT22;6268;48.188;17.134;2024-03-02T01:24:09;10.60;99.90
12408;DHT22;6268;48.188;17.134;2024-03-02T01:26:37;10.60;99.90
12408;DHT22;6268;48.188;17.134;2024-03-02T01:29:05;10.60;99.90
12408;DHT22;6268;48.188;17.134;2024-03-02T01:31:34;10.60;99.90
12408;DHT22;6268;48.188;17.134;2024-03-02T01:34:02;10.60;99.90
12408;DHT22;6268;48.188;17.134;2024-03-02T01:36:30;10.60;99.90
12408;DHT22;6268;48.188;17.134;2024-03-02T01:38:59;10.60;99.90
12408;DHT22;6268;48.188;17.134;2024-03-02T01:41:29;10.60;99.90
12408;DHT22;6268;48.188;17.134;2024-03-02T01:43:57;10.70;99.90
12408;DHT22;6268;48.188;17.134;2024-03-02T01:46:26;10.60;99.90
12408;DHT22;6268;48.188;17.134;2024-03-02T01:48:54;10.60;99.90
12408;DHT22;6268;48.188;17.134;2024-03-02T01:51:22;10.60;99.90
12408;DHT22;6268;48.188;17.134;2024-03-02T01:53:51;10.60;99.90
12408;DHT22;6268;48.188;17.134;2024-03-02T01:56:19;10.60;99.90
12408;DHT22;6268;48.188;17.134;2024-03-02T01:58:49;10.60;99.90
12408;DHT22;6268;48.188;17.134;2024-03-02T02:01:17;10.60;99.90
12408;DHT22;6268;48.188;17.134;2024-03-02T02:03:46;10.50;99.90
12408;DHT22;6268;48.188;17.134;2024-03-02T02:06:14;10.60;99.90
12408;DHT22;6268;48.188;17.134;2024-03-02T02:08:43;10.50;99.90
12408;DHT22;6268;48.188;17.134;2024-03-02T02:11:14;10.50;99.90
12408;DHT22;6268;48.188;17.134;2024-03-02T02:13:43;10.60;99.90
12408;DHT22;6268;48.188;17.134;2024-03-02T02:16:13;10.60;99.90
12408;DHT22;6268;48.188;17.134;2024-03-02T02:18:41;10.60;99.90
12408;DHT22;6268;48.188;17.134;2024-03-02T02:21:10;10.50;99.90
12408;DHT22;6268;48.188;17.134;2024-03-02T02:23:40;10.50;99.90
12408;DHT22;6268;48.188;17.134;2024-03-02T02:26:13;10.40;99.90
12408;DHT22;6268;48.188;17.134;2024-03-02T02:28:41;10.30;99.90
12408;DHT22;6268;48.188;17.134;2024-03-02T02:31:14;10.30;99.90
12408;DHT22;6268;48.188;17.134;2024-03-02T02:33:42;10.30;99.90
12408;DHT22;6268;48.188;17.134;2024-03-02T02:36:10;10.30;99.90
12408;DHT22;6268;48.188;17.134;2024-03-02T02:38:44;10.20;99.90
12408;DHT22;6268;48.188;17.134;2024-03-02T02:41:12;10.20;99.90
12408;DHT22;6268;48.188;17.134;2024-03-02T02:43:40;10.20;99.90
12408;DHT22;6268;48.188;17.134;2024-03-02T02:46:08;10.20;99.90
12408;DHT22;6268;48.188;17.134;2024-03-02T02:48:37;10.20;99.90
12408;DHT22;6268;48.188;17.134;2024-03-02T02:51:05;10.20;99.90
12408;DHT22;6268;48.188;17.134;2024-03-02T02:53:33;10.20;99.90
12408;DHT22;6268;48.188;17.134;2024-03-02T02:56:04;10.20;99.90
12408;DHT22;6268;48.188;17.134;2024-03-02T02:58:32;10.20;99.90
12408;DHT22;6268;48.188;17.134;2024-03-02T03:01:01;10.10;99.90
12408;DHT22;6268;48.188;17.134;2024-03-02T03:03:31;10.10;99.90
12408;DHT22;6268;48.188;17.134;2024-03-02T03:05:59;10.10;99.90
12408;DHT22;6268;48.188;17.134;2024-03-02T03:08:27;10.10;99.90
12408;DHT22;6268;48.188;17.134;2024-03-02T03:10:56;10.20;99.90
12408;DHT22;6268;48.188;17.134;2024-03-02T03:13:26;10.20;99.90
12408;DHT22;6268;48.188;17.134;2024-03-02T03:15:54;10.20;99.90
12408;DHT22;6268;48.188;17.134;2024-03-02T03:18:23;10.20;99.90
12408;DHT22;6268;48.188;17.134;2024-03-02T03:20:51;10.20;99.90
12408;DHT22;6268;48.188;17.134;2024-03-02T03:23:19;10.10;99.90
12408;DHT22;6268;48.188;17.134;2024-03-02T03:25:48;10.10;99.90
12408;DHT22;6268;48.188;17.134;2024-03-02T03:28:16;10.10;99.90
12408;DHT22;6268;48.188;17.134;2024-03-02T03:30:46;10.10;99.90
12408;DHT22;6268;48.188;17.134;2024-03-02T03:33:14;10.10;99.90
12408;DHT22;6268;48.188;17.134;2024-03-02T03:35:43;10.20;99.90
12408;DHT22;6268;48.188;17.134;2024-03-02T03:38:11;10.10;99.90
12408;DHT22;6268;48.188;17.134;2024-03-02T03:40:39;10.10;99.90
12408;DHT22;6268;48.188;17.134;2024-03-02T03:43:08;10.10;99.90
12408;DHT22;6268;48.188;17.134;2024-03-02T03:45:36;10.10;99.90
12408;DHT22;6268;48.188;17.134;2024-03-02T03:48:07;10.00;99.90
12408;DHT22;6268;48.188;17.134;2024-03-02T03:50:36;9.90;99.90
12408;DHT22;6268;48.188;17.134;2024-03-02T03:53:05;9.90;99.90
12408;DHT22;6268;48.188;17.134;2024-03-02T03:55:33;9.90;99.90
12408;DHT22;6268;48.188;17.134;2024-03-02T03:58:02;9.90;99.90
12408;DHT22;6268;48.188;17.134;2024-03-02T04:00:30;10.00;99.90
12408;DHT22;6268;48.188;17.134;2024-03-02T04:02:59;10.00;99.90
12408;DHT22;6268;48.188;17.134;2024-03-02T04:05:28;10.00;99.90
12408;DHT22;6268;48.188;17.134;2024-03-02T04:07:57;10.00;99.90
12408;DHT22;6268;48.188;17.134;2024-03-02T04:10:25;10.00;99.90
12408;DHT22;6268;48.188;17.134;2024-03-02T04:12:54;10.00;99.90
12408;DHT22;6268;48.188;17.134;2024-03-02T04:15:22;10.00;99.90
12408;DHT22;6268;48.188;17.134;2024-03-02T04:17:51;10.00;99.90
12408;DHT22;6268;48.188;17.134;2024-03-02T04:20:19;10.00;99.90
12408;DHT22;6268;48.188;17.134;2024-03-02T04:22:49;10.00;99.90
12408;DHT22;6268;48.188;17.134;2024-03-02T04:25:17;10.00;99.90
12408;DHT22;6268;48.188;17.134;2024-03-02T04:27:47;10.10;99.90
12408;DHT22;6268;48.188;17.134;2024-03-02T04:30:15;10.10;99.90
12408;DHT22;6268;48.188;17.134;2024-03-02T04:32:44;10.00;99.90
12408;DHT22;6268;48.188;17.134;2024-03-02T04:35:14;10.10;99.90
12408;DHT22;6268;48.188;17.134;2024-03-02T04:37:42;10.10;99.90
12408;DHT22;6268;48.188;17.134;2024-03-02T04:40:13;10.10;99.90
12408;DHT22;6268;48.188;17.134;2024-03-02T04:42:41;10.10;99.90
12408;DHT22;6268;48.188;17.134;2024-03-02T04:45:10;10.00;99.90
12408;DHT22;6268;48.188;17.134;2024-03-02T04:47:38;10.00;99.90
12408;DHT22;6268;48.188;17.134;2024-03-02T04:50:07;9.90;99.90
12408;DHT22;6268;48.188;17.134;2024-03-02T04:52:36;10.00;99.90
12408;DHT22;6268;48.188;17.134;2024-03-02T04:55:04;10.10;99.90
12408;DHT22;6268;48.188;17.134;2024-03-02T04:57:58;10.10;99.90
12408;DHT22;6268;48.188;17.134;2024-03-02T05:00:26;10.10;99.90
12408;DHT22;6268;48.188;17.134;2024-03-02T05:02:54;10.10;99.90
12408;DHT22;6268;48.188;17.134;2024-03-02T05:05:23;10.10;99.90
12408;DHT22;6268;48.188;17.134;2024-03-02T05:07:51;10.10;99.90
12408;DHT22;6268;48.188;17.134;2024-03-02T05:10:20;10.10;99.90
12408;DHT22;6268;48.188;17.134;2024-03-02T05:12:48;10.10;99.90
12408;DHT22;6268;48.188;17.134;2024-03-02T05:15:25;10.10;99.90
12408;DHT22;6268;48.188;17.134;2024-03-02T05:17:54;10.10;99.90
12408;DHT22;6268;48.188;17.134;2024-03-02T05:20:24;10.10;99.90
12408;DHT22;6268;48.188;17.134;2024-03-02T05:22:52;10.10;99.90
12408;DHT22;6268;48.188;17.134;2024-03-02T05:25:20;10.10;99.90
12408;DHT22;6268;48.188;17.134;2024-03-02T05:27:49;10.00;99.90
12408;DHT22;6268;48.188;17.134;2024-03-02T05:30:18;10.10;99.90
12408;DHT22;6268;48.188;17.134;2024-03-02T05:32:48;10.10;99.90
12408;DHT22;6268;48.188;17.134;2024-03-02T05:35:16;10.10;99.90
12408;DHT22;6268;48.188;17.134;2024-03-02T05:37:45;10.10;99.90
12408;DHT22;6268;48.188;17.134;2024-03-02T05:40:13;10.10;99.90
12408;DHT22;6268;48.188;17.134;2024-03-02T05:42:44;10.10;99.90
12408;DHT22;6268;48.188;17.134;2024-03-02T05:45:12;10.10;99.90
12408;DHT22;6268;48.188;17.134;2024-03-02T05:47:43;10.10;99.90
12408;DHT22;6268;48.188;17.134;2024-03-02T05:50:13;10.00;99.90
12408;DHT22;6268;48.188;17.134;2024-03-02T05:52:41;10.00;99.90
12408;DHT22;6268;48.188;17.134;2024-03-02T05:55:10;10.00;99.90
12408;DHT22;6268;48.188;17.134;2024-03-02T05:57:38;10.10;99.90
12408;DHT22;6268;48.188;17.134;2024-03-02T06:00:30;10.10;99.90
12408;DHT22;6268;48.188;17.134;2024-03-02T06:02:59;10.10;99.90
12408;DHT22;6268;48.188;17.134;2024-03-02T06:05:29;10.00;99.90
12408;DHT22;6268;48.188;17.134;2024-03-02T06:07:57;10.00;99.90
12408;DHT22;6268;48.188;17.134;2024-03-02T06:10:25;9.90;99.90
12408;DHT22;6268;48.188;17.134;2024-03-02T06:12:54;10.00;99.90
12408;DHT22;6268;48.188;17.134;2024-03-02T06:15:22;10.00;99.90
12408;DHT22;6268;48.188;17.134;2024-03-02T06:17:51;10.10;99.90
12408;DHT22;6268;48.188;17.134;2024-03-02T06:20:19;10.20;99.90
12408;DHT22;6268;48.188;17.134;2024-03-02T06:22:49;10.20;99.90
12408;DHT22;6268;48.188;17.134;2024-03-02T06:25:18;10.30;99.90
12408;DHT22;6268;48.188;17.134;2024-03-02T06:27:46;10.30;99.90
12408;DHT22;6268;48.188;17.134;2024-03-02T06:30:15;10.30;99.90
12408;DHT22;6268;48.188;17.134;2024-03-02T06:32:44;10.30;99.90
12408;DHT22;6268;48.188;17.134;2024-03-02T06:35:12;10.40;99.90
12408;DHT22;6268;48.188;17.134;2024-03-02T06:37:41;10.30;99.90
12408;DHT22;6268;48.188;17.134;2024-03-02T06:40:11;10.30;99.90
12408;DHT22;6268;48.188;17.134;2024-03-02T06:42:39;10.40;99.90
12408;DHT22;6268;48.188;17.134;2024-03-02T06:45:08;10.40;99.90
12408;DHT22;6268;48.188;17.134;2024-03-02T06:47:36;10.40;99.90
12408;DHT22;6268;48.188;17.134;2024-03-02T06:50:05;10.40;99.90
12408;DHT22;6268;48.188;17.134;2024-03-02T06:52:34;10.50;99.90
12408;DHT22;6268;48.188;17.134;2024-03-02T06:55:02;10.40;99.90
12408;DHT22;6268;48.188;17.134;2024-03-02T06:57:33;10.50;99.90
12408;DHT22;6268;48.188;17.134;2024-03-02T07:00:02;10.50;99.90
12408;DHT22;6268;48.188;17.134;2024-03-02T07:02:32;10.60;99.90
12408;DHT22;6268;48.188;17.134;2024-03-02T07:05:00;10.70;99.90
12408;DHT22;6268;48.188;17.134;2024-03-02T07:07:29;10.70;99.90
12408;DHT22;6268;48.188;17.134;2024-03-02T07:09:57;10.70;99.90
12408;DHT22;6268;48.188;17.134;2024-03-02T07:12:26;10.80;99.90
12408;DHT22;6268;48.188;17.134;2024-03-02T07:14:56;10.80;99.90
12408;DHT22;6268;48.188;17.134;2024-03-02T07:17:52;10.80;99.90
12408;DHT22;6268;48.188;17.134;2024-03-02T07:20:20;10.80;99.90
12408;DHT22;6268;48.188;17.134;2024-03-02T07:22:48;10.70;99.90
12408;DHT22;6268;48.188;17.134;2024-03-02T07:25:17;10.70;99.90
12408;DHT22;6268;48.188;17.134;2024-03-02T07:27:48;10.70;99.90
12408;DHT22;6268;48.188;17.134;2024-03-02T07:30:18;10.60;99.90
12408;DHT22;6268;48.188;17.134;2024-03-02T07:32:49;10.40;99.90
12408;DHT22;6268;48.188;17.134;2024-03-02T07:35:18;10.50;99.90
12408;DHT22;6268;48.188;17.134;2024-03-02T07:37:46;10.50;99.90
12408;DHT22;6268;48.188;17.134;2024-03-02T07:40:15;10.30;99.90
12408;DHT22;6268;48.188;17.134;2024-03-02T07:42:43;10.20;99.90
12408;DHT22;6268;48.188;17.134;2024-03-02T07:45:11;10.20;99.90
12408;DHT22;6268;48.188;17.134;2024-03-02T07:47:41;10.20;99.90
12408;DHT22;6268;48.188;17.134;2024-03-02T07:50:09;10.20;99.90
12408;DHT22;6268;48.188;17.134;2024-03-02T07:52:38;10.10;99.90
12408;DHT22;6268;48.188;17.134;2024-03-02T07:55:07;10.10;99.90
12408;DHT22;6268;48.188;17.134;2024-03-02T07:57:35;10.00;99.90
12408;DHT22;6268;48.188;17.134;2024-03-02T08:00:04;10.00;99.90
12408;DHT22;6268;48.188;17.134;2024-03-02T08:02:33;10.10;99.90
12408;DHT22;6268;48.188;17.134;2024-03-02T08:05:03;10.10;99.90
12408;DHT22;6268;48.188;17.134;2024-03-02T08:07:32;10.00;99.90
12408;DHT22;6268;48.188;17.134;2024-03-02T08:10:01;9.90;99.90
12408;DHT22;6268;48.188;17.134;2024-03-02T08:12:29;9.90;99.90
12408;DHT22;6268;48.188;17.134;2024-03-02T08:14:57;9.90;99.90
12408;DHT22;6268;48.188;17.134;2024-03-02T08:17:26;10.00;99.90
12408;DHT22;6268;48.188;17.134;2024-03-02T08:19:54;10.10;99.90
12408;DHT22;6268;48.188;17.134;2024-03-02T08:22:24;10.10;99.90
12408;DHT22;6268;48.188;17.134;2024-03-02T08:24:53;10.10;99.90
12408;DHT22;6268;48.188;17.134;2024-03-02T08:27:22;10.20;99.90
12408;DHT22;6268;48.188;17.134;2024-03-02T08:29:50;10.20;99.90
12408;DHT22;6268;48.188;17.134;2024-03-02T08:32:19;10.30;99.90
12408;DHT22;6268;48.188;17.134;2024-03-02T08:34:47;10.50;99.90
12408;DHT22;6268;48.188;17.134;2024-03-02T08:37:16;10.60;99.90
12408;DHT22;6268;48.188;17.134;2024-03-02T08:39:46;10.80;99.90
12408;DHT22;6268;48.188;17.134;2024-03-02T08:42:15;10.90;99.90
12408;DHT22;6268;48.188;17.134;2024-03-02T08:44:44;11.00;99.90
12408;DHT22;6268;48.188;17.134;2024-03-02T08:47:13;11.10;99.90
12408;DHT22;6268;48.188;17.134;2024-03-02T08:49:41;10.90;99.90
12408;DHT22;6268;48.188;17.134;2024-03-02T08:52:09;10.90;99.90
12408;DHT22;6268;48.188;17.134;2024-03-02T08:54:38;10.80;99.90
12408;DHT22;6268;48.188;17.134;2024-03-02T08:57:07;10.80;99.90
12408;DHT22;6268;48.188;17.134;2024-03-02T08:59:36;10.80;99.90
12408;DHT22;6268;48.188;17.134;2024-03-02T09:02:04;10.80;99.90
12408;DHT22;6268;48.188;17.134;2024-03-02T09:04:33;10.80;99.90
12408;DHT22;6268;48.188;17.134;2024-03-02T09:07:02;10.70;99.90
12408;DHT22;6268;48.188;17.134;2024-03-02T09:09:30;10.70;99.90
12408;DHT22;6268;48.188;17.134;2024-03-02T09:11:59;10.70;99.90
12408;DHT22;6268;48.188;17.134;2024-03-02T09:14:29;10.70;99.90
12408;DHT22;6268;48.188;17.134;2024-03-02T09:16:58;10.70;99.90
12408;DHT22;6268;48.188;17.134;2024-03-02T09:19:26;10.80;99.90
12408;DHT22;6268;48.188;17.134;2024-03-02T09:21:55;10.80;99.90
12408;DHT22;6268;48.188;17.134;2024-03-02T09:24:25;10.90;99.90
12408;DHT22;6268;48.188;17.134;2024-03-02T09:26:54;11.00;99.90
12408;DHT22;6268;48.188;17.134;2024-03-02T09:29:22;11.20;99.90
12408;DHT22;6268;48.188;17.134;2024-03-02T09:31:52;11.20;99.90
12408;DHT22;6268;48.188;17.134;2024-03-02T09:34:20;11.30;99.90
12408;DHT22;6268;48.188;17.134;2024-03-02T09:36:50;11.30;99.90
12408;DHT22;6268;48.188;17.134;2024-03-02T09:39:20;11.20;99.90
12408;DHT22;6268;48.188;17.134;2024-03-02T09:41:48;11.10;99.90
12408;DHT22;6268;48.188;17.134;2024-03-02T09:44:19;11.00;99.90
12408;DHT22;6268;48.188;17.134;2024-03-02T09:46:49;11.10;99.90
12408;DHT22;6268;48.188;17.134;2024-03-02T09:49:19;11.10;99.90
12408;DHT22;6268;48.188;17.134;2024-03-02T09:51:48;11.00;99.90
12408;DHT22;6268;48.188;17.134;2024-03-02T09:54:17;11.00;99.90
12408;DHT22;6268;48.188;17.134;2024-03-02T09:56:50;11.10;99.90
12408;DHT22;6268;48.188;17.134;2024-03-02T09:59:19;11.20;99.90
12408;DHT22;6268;48.188;17.134;2024-03-02T10:01:58;11.00;99.90
12408;DHT22;6268;48.188;17.134;2024-03-02T10:04:29;11.00;99.90
12408;DHT22;6268;48.188;17.134;2024-03-02T10:07:12;10.90;99.90
12408;DHT22;6268;48.188;17.134;2024-03-02T10:09:43;10.90;99.90
12408;DHT22;6268;48.188;17.134;2024-03-02T10:12:14;10.90;99.90
12408;DHT22;6268;48.188;17.134;2024-03-02T10:14:43;10.80;99.90
12408;DHT22;6268;48.188;17.134;2024-03-02T10:17:13;10.90;99.90
12408;DHT22;6268;48.188;17.134;2024-03-02T10:19:44;11.00;99.90
12408;DHT22;6268;48.188;17.134;2024-03-02T10:22:12;11.00;99.90
12408;DHT22;6268;48.188;17.134;2024-03-02T10:24:42;11.10;99.90
12408;DHT22;6268;48.188;17.134;2024-03-02T10:27:16;11.10;99.90
12408;DHT22;6268;48.188;17.134;2024-03-02T10:29:46;11.20;99.90
12408;DHT22;6268;48.188;17.134;2024-03-02T10:32:15;11.30;99.90
12408;DHT22;6268;48.188;17.134;2024-03-02T10:34:46;11.30;99.90
12408;DHT22;6268;48.188;17.134;2024-03-02T10:37:15;11.30;99.90
12408;DHT22;6268;48.188;17.134;2024-03-02T10:39:46;11.20;99.90
12408;DHT22;6268;48.188;17.134;2024-03-02T10:42:16;11.30;99.90
12408;DHT22;6268;48.188;17.134;2024-03-02T10:44:48;11.20;99.90
12408;DHT22;6268;48.188;17.134;2024-03-02T10:47:18;11.10;99.90
12408;DHT22;6268;48.188;17.134;2024-03-02T10:49:50;11.10;99.90
12408;DHT22;6268;48.188;17.134;2024-03-02T10:52:19;11.10;99.90
12408;DHT22;6268;48.188;17.134;2024-03-02T10:54:50;10.90;99.90
12408;DHT22;6268;48.188;17.134;2024-03-02T10:57:21;11.00;99.90
12408;DHT22;6268;48.188;17.134;2024-03-02T10:59:52;11.00;99.90
12408;DHT22;6268;48.188;17.134;2024-03-02T11:02:25;11.00;99.90
12408;DHT22;6268;48.188;17.134;2024-03-02T11:04:57;10.90;99.90
12408;DHT22;6268;48.188;17.134;2024-03-02T11:07:28;10.80;99.90
12408;DHT22;6268;48.188;17.134;2024-03-02T11:09:59;10.80;99.90
12408;DHT22;6268;48.188;17.134;2024-03-02T11:12:38;10.90;99.90
12408;DHT22;6268;48.188;17.134;2024-03-02T11:15:10;10.90;99.90
12408;DHT22;6268;48.188;17.134;2024-03-02T11:17:39;10.80;99.90
12408;DHT22;6268;48.188;17.134;2024-03-02T11:20:10;10.80;99.90
12408;DHT22;6268;48.188;17.134;2024-03-02T11:22:38;10.80;99.90
12408;DHT22;6268;48.188;17.134;2024-03-02T11:25:23;10.80;99.90
12408;DHT22;6268;48.188;17.134;2024-03-02T11:28:05;10.80;99.90
12408;DHT22;6268;48.188;17.134;2024-03-02T11:30:49;10.70;99.90
12408;DHT22;6268;48.188;17.134;2024-03-02T11:33:23;10.70;99.90
12408;DHT22;6268;48.188;17.134;2024-03-02T11:35:56;10.60;99.90
12408;DHT22;6268;48.188;17.134;2024-03-02T11:38:31;10.50;99.90
12408;DHT22;6268;48.188;17.134;2024-03-02T11:41:02;10.50;99.90
12408;DHT22;6268;48.188;17.134;2024-03-02T11:43:31;10.40;99.90
12408;DHT22;6268;48.188;17.134;2024-03-02T11:46:01;10.50;99.90
12408;DHT22;6268;48.188;17.134;2024-03-02T11:48:35;10.50;99.90
12408;DHT22;6268;48.188;17.134;2024-03-02T11:51:06;10.50;99.90
12408;DHT22;6268;48.188;17.134;2024-03-02T11:53:35;10.40;99.90
12408;DHT22;6268;48.188;17.134;2024-03-02T11:56:06;10.40;99.90
12408;DHT22;6268;48.188;17.134;2024-03-02T11:58:39;10.40;99.90
12408;DHT22;6268;48.188;17.134;2024-03-02T12:01:10;10.50;99.90
12408;DHT22;6268;48.188;17.134;2024-03-02T12:03:40;10.50;99.90
12408;DHT22;6268;48.188;17.134;2024-03-02T12:06:11;10.60;99.90
12408;DHT22;6268;48.188;17.134;2024-03-02T12:08:40;10.60;99.90
12408;DHT22;6268;48.188;17.134;2024-03-02T12:11:13;10.50;99.90
12408;DHT22;6268;48.188;17.134;2024-03-02T12:13:52;10.50;99.90
12408;DHT22;6268;48.188;17.134;2024-03-02T12:16:25;10.50;99.90
12408;DHT22;6268;48.188;17.134;2024-03-02T12:18:54;10.40;99.90
12408;DHT22;6268;48.188;17.134;2024-03-02T12:21:24;10.40;99.90
12408;DHT22;6268;48.188;17.134;2024-03-02T12:23:53;10.40;99.90
12408;DHT22;6268;48.188;17.134;2024-03-02T12:26:22;10.40;99.90
12408;DHT22;6268;48.188;17.134;2024-03-02T12:28:51;10.40;99.90
12408;DHT22;6268;48.188;17.134;2024-03-02T12:31:20;10.40;99.90
12408;DHT22;6268;48.188;17.134;2024-03-02T12:33:48;10.50;99.90
12408;DHT22;6268;48.188;17.134;2024-03-02T12:36:17;10.60;99.90
12408;DHT22;6268;48.188;17.134;2024-03-02T12:38:47;10.60;99.90
12408;DHT22;6268;48.188;17.134;2024-03-02T12:41:17;10.60;99.90
12408;DHT22;6268;48.188;17.134;2024-03-02T12:43:45;10.60;99.90
12408;DHT22;6268;48.188;17.134;2024-03-02T12:46:14;10.50;99.90
12408;DHT22;6268;48.188;17.134;2024-03-02T12:48:43;10.50;99.90
12408;DHT22;6268;48.188;17.134;2024-03-02T12:51:12;10.50;99.90
12408;DHT22;6268;48.188;17.134;2024-03-02T12:53:41;10.50;99.90
12408;DHT22;6268;48.188;17.134;2024-03-02T12:56:11;10.50;99.90
12408;DHT22;6268;48.188;17.134;2024-03-02T12:58:40;10.60;99.90
12408;DHT22;6268;48.188;17.134;2024-03-02T13:01:09;10.60;99.90
12408;DHT22;6268;48.188;17.134;2024-03-02T13:03:38;10.60;99.90
12408;DHT22;6268;48.188;17.134;2024-03-02T13:06:07;10.60;99.90
12408;DHT22;6268;48.188;17.134;2024-03-02T13:08:36;10.60;99.90
12408;DHT22;6268;48.188;17.134;2024-03-02T13:11:04;10.60;99.90
12408;DHT22;6268;48.188;17.134;2024-03-02T13:13:35;10.60;99.90
12408;DHT22;6268;48.188;17.134;2024-03-02T13:16:08;10.60;99.90
12408;DHT22;6268;48.188;17.134;2024-03-02T13:18:38;10.60;99.90
12408;DHT22;6268;48.188;17.134;2024-03-02T13:21:06;10.60;99.90
12408;DHT22;6268;48.188;17.134;2024-03-02T13:23:35;10.60;99.90
12408;DHT22;6268;48.188;17.134;2024-03-02T13:26:03;10.60;99.90
12408;DHT22;6268;48.188;17.134;2024-03-02T13:28:32;10.50;99.90
12408;DHT22;6268;48.188;17.134;2024-03-02T13:31:02;10.50;99.90
12408;DHT22;6268;48.188;17.134;2024-03-02T13:33:31;10.40;99.90
12408;DHT22;6268;48.188;17.134;2024-03-02T13:36:00;10.50;99.90
12408;DHT22;6268;48.188;17.134;2024-03-02T13:38:29;10.50;99.90
12408;DHT22;6268;48.188;17.134;2024-03-02T13:40:58;10.50;99.90
12408;DHT22;6268;48.188;17.134;2024-03-02T13:43:27;10.60;99.90
12408;DHT22;6268;48.188;17.134;2024-03-02T13:45:58;10.60;99.90
12408;DHT22;6268;48.188;17.134;2024-03-02T13:48:29;10.60;99.90
12408;DHT22;6268;48.188;17.134;2024-03-02T13:50:58;10.50;99.90
12408;DHT22;6268;48.188;17.134;2024-03-02T13:53:26;10.50;99.90
12408;DHT22;6268;48.188;17.134;2024-03-02T13:55:55;10.40;99.90
12408;DHT22;6268;48.188;17.134;2024-03-02T13:58:23;10.50;99.90
12408;DHT22;6268;48.188;17.134;2024-03-02T14:00:52;10.50;99.90
12408;DHT22;6268;48.188;17.134;2024-03-02T14:03:20;10.50;99.90
12408;DHT22;6268;48.188;17.134;2024-03-02T14:05:51;10.50;99.90
12408;DHT22;6268;48.188;17.134;2024-03-02T14:08:20;10.40;99.90
12408;DHT22;6268;48.188;17.134;2024-03-02T14:10:48;10.40;99.90
12408;DHT22;6268;48.188;17.134;2024-03-02T14:13:17;10.40;99.90
12408;DHT22;6268;48.188;17.134;2024-03-02T14:15:45;10.40;99.90
12408;DHT22;6268;48.188;17.134;2024-03-02T14:18:13;10.40;99.90
12408;DHT22;6268;48.188;17.134;2024-03-02T14:20:42;10.30;99.90
12408;DHT22;6268;48.188;17.134;2024-03-02T14:23:14;10.30;99.90
12408;DHT22;6268;48.188;17.134;2024-03-02T14:25:42;10.30;99.90
12408;DHT22;6268;48.188;17.134;2024-03-02T14:28:10;10.30;99.90
12408;DHT22;6268;48.188;17.134;2024-03-02T14:30:59;10.30;99.90
12408;DHT22;6268;48.188;17.134;2024-03-02T14:33:28;10.40;99.90
12408;DHT22;6268;48.188;17.134;2024-03-02T14:35:57;10.40;99.90
12408;DHT22;6268;48.188;17.134;2024-03-02T14:38:27;10.30;99.90
12408;DHT22;6268;48.188;17.134;2024-03-02T14:40:56;10.40;99.90
12408;DHT22;6268;48.188;17.134;2024-03-02T14:43:25;10.30;99.90
12408;DHT22;6268;48.188;17.134;2024-03-02T14:45:53;10.30;99.90
12408;DHT22;6268;48.188;17.134;2024-03-02T14:48:21;10.40;99.90
12408;DHT22;6268;48.188;17.134;2024-03-02T14:50:50;10.40;99.90
12408;DHT22;6268;48.188;17.134;2024-03-02T14:53:19;10.30;99.90
12408;DHT22;6268;48.188;17.134;2024-03-02T14:55:49;10.30;99.90
12408;DHT22;6268;48.188;17.134;2024-03-02T14:58:17;10.30;99.90
12408;DHT22;6268;48.188;17.134;2024-03-02T15:00:46;10.30;99.90
12408;DHT22;6268;48.188;17.134;2024-03-02T15:03:15;10.30;99.90
12408;DHT22;6268;48.188;17.134;2024-03-02T15:05:43;10.30;99.90
12408;DHT22;6268;48.188;17.134;2024-03-02T15:08:12;10.30;99.90
12408;DHT22;6268;48.188;17.134;2024-03-02T15:10:41;10.30;99.90
12408;DHT22;6268;48.188;17.134;2024-03-02T15:13:13;10.30;99.90
12408;DHT22;6268;48.188;17.134;2024-03-02T15:15:42;10.30;99.90
12408;DHT22;6268;48.188;17.134;2024-03-02T15:18:10;10.30;99.90
12408;DHT22;6268;48.188;17.134;2024-03-02T15:20:39;10.30;99.90
12408;DHT22;6268;48.188;17.134;2024-03-02T15:23:08;10.30;99.90
12408;DHT22;6268;48.188;17.134;2024-03-02T15:25:36;10.30;99.90
12408;DHT22;6268;48.188;17.134;2024-03-02T15:28:05;10.30;99.90
12408;DHT22;6268;48.188;17.134;2024-03-02T15:30:35;10.20;99.90
12408;DHT22;6268;48.188;17.134;2024-03-02T15:33:04;10.20;99.90
12408;DHT22;6268;48.188;17.134;2024-03-02T15:35:33;10.20;99.90
12408;DHT22;6268;48.188;17.134;2024-03-02T15:38:01;10.20;99.90
12408;DHT22;6268;48.188;17.134;2024-03-02T15:40:31;10.20;99.90
12408;DHT22;6268;48.188;17.134;2024-03-02T15:43:00;10.30;99.90
12408;DHT22;6268;48.188;17.134;2024-03-02T15:45:28;10.20;99.90